createdAt,value
2023-04-22T00:00:42.989Z,100944.97
2023-04-22T00:03:12.955Z,100935.31
2023-04-22T00:05:45.083Z,100942.44
2023-04-22T00:08:15.027Z,100947.72
2023-04-22T00:10:44.947Z,100971.59
2023-04-22T00:13:17.383Z,100948.69
2023-04-22T00:15:48.649Z,100909.88
2023-04-22T00:18:19.312Z,100902.81
2023-04-22T00:20:49.205Z,100905.44
2023-04-22T00:23:19.375Z,100908.06
2023-04-22T00:25:49.293Z,100905.41
2023-04-22T00:28:22.556Z,100916.81
2023-04-22T00:30:52.604Z,100909.59
2023-04-22T00:33:22.528Z,100893.50
2023-04-22T00:35:52.414Z,100908.41
2023-04-22T00:38:22.276Z,100916.34
2023-04-22T00:40:52.174Z,100906.63
2023-04-22T00:43:24.630Z,100906.50
2023-04-22T00:45:54.446Z,100894.84
2023-04-22T00:48:25.678Z,100895.59
2023-04-22T00:50:57.294Z,100885.84
2023-04-22T00:53:27.123Z,100886.75
2023-04-22T00:56:00.098Z,100889.44
2023-04-22T00:58:33.595Z,100892.03
2023-04-22T01:01:04.126Z,100904.31
2023-04-22T01:03:36.188Z,100913.91
2023-04-22T01:06:06.202Z,100897.84
2023-04-22T01:08:37.122Z,100898.56
2023-04-22T01:11:07.021Z,100893.13
2023-04-22T01:13:39.560Z,100889.44
2023-04-22T01:16:12.112Z,100893.69
2023-04-22T01:18:45.144Z,100882.06
2023-04-22T01:21:15.102Z,100890.75
2023-04-22T01:23:48.054Z,100894.19
2023-04-22T01:26:17.984Z,100885.25
2023-04-22T01:28:48.708Z,100890.44
2023-04-22T01:31:18.709Z,100880.69
2023-04-22T01:33:48.885Z,100878.03
2023-04-22T01:36:19.665Z,100874.56
2023-04-22T01:38:52.428Z,100875.44
2023-04-22T01:41:22.581Z,100866.66
2023-04-22T01:43:52.825Z,100865.81
2023-04-22T01:46:23.143Z,100859.59
2023-04-22T01:48:53.299Z,100863.09
2023-04-22T01:51:23.850Z,100855.25
2023-04-22T01:53:57.189Z,100863.22
2023-04-22T01:56:30.032Z,100848.25
2023-04-22T01:58:59.875Z,100852.66
2023-04-22T02:01:29.833Z,100849.13
2023-04-22T02:03:59.702Z,100853.50
2023-04-22T02:06:30.061Z,100844.72
2023-04-22T02:09:02.485Z,100850.00
2023-04-22T02:11:32.337Z,100839.41
2023-04-22T02:14:02.160Z,100839.41
2023-04-22T02:16:32.155Z,100835.88
2023-04-22T02:19:02.052Z,100834.00
2023-04-22T02:21:32.858Z,100840.16
2023-04-22T02:24:05.305Z,100835.72
2023-04-22T02:26:35.133Z,100831.25
2023-04-22T02:29:04.996Z,100826.78
2023-04-22T02:31:34.883Z,100831.94
2023-04-22T02:34:04.753Z,100830.09
2023-04-22T02:36:35.100Z,100823.88
2023-04-22T02:39:08.442Z,100816.78
2023-04-22T02:41:38.456Z,100819.38
2023-04-22T02:44:08.348Z,100812.22
2023-04-22T02:46:38.223Z,100809.50
2023-04-22T02:49:08.087Z,100809.47
2023-04-22T02:51:37.955Z,100800.47
2023-04-22T02:54:11.303Z,100803.00
2023-04-22T02:56:42.188Z,100800.19
2023-04-22T02:59:12.064Z,100806.28
2023-04-22T03:01:41.947Z,100800.94
2023-04-22T03:04:12.546Z,100802.59
2023-04-22T03:06:42.531Z,100797.13
2023-04-22T03:09:15.050Z,100789.13
2023-04-22T03:11:45.708Z,100790.72
2023-04-22T03:14:15.559Z,100790.59
2023-04-22T03:16:45.422Z,100790.53
2023-04-22T03:19:15.273Z,100784.31
2023-04-22T03:21:45.237Z,100786.94
2023-04-22T03:24:17.657Z,100776.41
2023-04-22T03:26:47.514Z,100776.38
2023-04-22T03:29:17.416Z,100778.91
2023-04-22T03:31:47.268Z,100775.41
2023-04-22T03:34:17.675Z,100771.81
2023-04-22T03:36:47.477Z,100762.97
2023-04-22T03:39:20.123Z,100758.50
2023-04-22T03:41:49.968Z,100761.97
2023-04-22T03:44:19.821Z,100759.25
2023-04-22T03:46:49.661Z,100757.41
2023-04-22T03:49:19.896Z,100758.09
2023-04-22T03:51:49.791Z,100753.56
2023-04-22T03:54:23.123Z,100754.25
2023-04-22T03:56:57.586Z,100741.84
2023-04-22T03:59:27.404Z,100748.81
2023-04-22T04:01:57.248Z,100747.94
2023-04-22T04:04:29.639Z,100746.16
2023-04-22T04:07:00.021Z,100745.28
2023-04-22T04:09:33.985Z,100737.31
2023-04-22T04:12:03.784Z,100731.97
2023-04-22T04:14:33.639Z,100728.47
2023-04-22T04:17:03.900Z,100731.97
2023-04-22T04:19:33.820Z,100724.00
2023-04-22T04:22:03.622Z,100738.06
2023-04-22T04:24:36.927Z,100731.84
2023-04-22T04:27:07.935Z,100737.13
2023-04-22T04:29:38.118Z,100738.00
2023-04-22T04:32:08.739Z,100738.75
2023-04-22T04:34:38.705Z,100740.38
2023-04-22T04:37:08.531Z,100741.06
2023-04-22T04:39:42.695Z,100743.56
2023-04-22T04:42:14.649Z,100741.75
2023-04-22T04:44:44.528Z,100732.09
2023-04-22T04:47:15.289Z,100737.53
2023-04-22T04:49:46.385Z,100734.22
2023-04-22T04:52:16.979Z,100733.78
2023-04-22T04:54:51.031Z,100734.19
2023-04-22T04:57:20.906Z,100732.16
2023-04-22T04:59:50.790Z,100739.72
2023-04-22T05:02:20.843Z,100728.72
2023-04-22T05:04:50.911Z,100732.69
2023-04-22T05:07:20.797Z,100726.13
2023-04-22T05:09:53.228Z,100718.72
2023-04-22T05:12:23.047Z,100725.31
2023-04-22T05:14:52.805Z,100721.16
2023-04-22T05:17:23.712Z,100720.47
2023-04-22T05:19:53.527Z,100713.47
2023-04-22T05:22:23.822Z,100722.22
2023-04-22T05:24:56.305Z,100715.84
2023-04-22T05:27:26.252Z,100716.38
2023-04-22T05:29:56.334Z,100718.81
2023-04-22T05:32:26.401Z,100725.88
2023-04-22T05:34:56.411Z,100721.59
2023-04-22T05:37:26.295Z,100725.25
2023-04-22T05:39:59.528Z,100725.34
2023-04-22T05:42:29.678Z,100729.94
2023-04-22T05:44:59.541Z,100730.91
2023-04-22T05:47:29.426Z,100734.47
2023-04-22T05:49:59.387Z,100742.44
2023-04-22T05:52:29.387Z,100748.81
2023-04-22T05:55:02.857Z,100743.00
2023-04-22T05:57:37.911Z,100740.63
2023-04-22T06:00:09.455Z,100742.50
2023-04-22T06:02:40.354Z,100741.63
2023-04-22T06:05:11.332Z,100743.34
2023-04-22T06:07:41.199Z,100743.34
2023-04-22T06:10:14.121Z,100744.16
2023-04-22T06:12:46.256Z,100743.19
2023-04-22T06:15:16.099Z,100746.66
2023-04-22T06:17:45.959Z,100743.09
2023-04-22T06:20:15.941Z,100736.00
2023-04-22T06:22:46.509Z,100741.28
2023-04-22T06:25:18.982Z,100743.00
2023-04-22T06:27:48.839Z,100738.59
2023-04-22T06:30:18.989Z,100741.28
2023-04-22T06:32:52.126Z,100744.00
2023-04-22T06:35:21.991Z,100742.28
2023-04-22T06:37:52.045Z,100739.69
2023-04-22T06:40:24.701Z,100745.97
2023-04-22T06:42:55.354Z,100748.78
2023-04-22T06:45:25.152Z,100748.16
2023-04-22T06:47:56.089Z,100750.16
2023-04-22T06:50:26.049Z,100744.19
2023-04-22T06:52:56.457Z,100752.38
2023-04-22T06:55:34.892Z,100748.19
2023-04-22T06:58:04.818Z,100758.97
2023-04-22T07:00:34.620Z,100757.28
2023-04-22T07:03:06.059Z,100757.34
2023-04-22T07:05:37.785Z,100756.56
2023-04-22T07:08:08.413Z,100751.28
2023-04-22T07:10:40.856Z,100748.69
2023-04-22T07:13:10.717Z,100744.31
2023-04-22T07:15:41.035Z,100737.22
2023-04-22T07:18:11.220Z,100746.09
2023-04-22T07:20:41.152Z,100738.19
2023-04-22T07:23:10.977Z,100728.50
2023-04-22T07:25:43.530Z,100732.03
2023-04-22T07:28:14.627Z,100725.91
2023-04-22T07:30:44.507Z,100732.13
2023-04-22T07:33:14.312Z,100728.63
2023-04-22T07:35:44.169Z,100732.19
2023-04-22T07:38:14.722Z,100732.19
2023-04-22T07:40:47.201Z,100732.22
2023-04-22T07:43:17.130Z,100726.94
2023-04-22T07:45:50.429Z,100727.84
2023-04-22T07:48:21.894Z,100720.81
2023-04-22T07:50:51.750Z,100719.06
2023-04-22T07:53:26.493Z,100715.50
2023-04-22T07:56:02.166Z,100707.59
2023-04-22T07:58:32.146Z,100703.22
2023-04-22T08:01:02.024Z,100699.75
2023-04-22T08:03:38.758Z,100693.59
2023-04-22T08:06:09.024Z,100688.38
2023-04-22T08:08:38.879Z,100681.34
2023-04-22T08:11:11.340Z,100677.00
2023-04-22T08:13:41.185Z,100678.78
2023-04-22T08:16:11.032Z,100673.53
2023-04-22T08:18:40.925Z,100681.50
2023-04-22T08:21:11.093Z,100671.81
2023-04-22T08:23:41.080Z,100660.34
2023-04-22T08:26:18.455Z,100672.81
2023-04-22T08:28:48.325Z,100667.59
2023-04-22T08:31:18.233Z,100659.66
2023-04-22T08:33:48.177Z,100657.00
2023-04-22T08:36:18.890Z,100665.00
2023-04-22T08:38:50.046Z,100670.38
2023-04-22T08:41:24.768Z,100666.84
2023-04-22T08:43:56.188Z,100666.03
2023-04-22T08:46:28.956Z,100667.84
2023-04-22T08:49:04.051Z,100667.00
2023-04-22T08:51:35.214Z,100666.13
2023-04-22T08:54:14.391Z,100666.16
2023-04-22T08:56:51.389Z,100661.78
2023-04-22T08:59:24.673Z,100655.56
2023-04-22T09:03:37.612Z,100660.00
2023-04-22T12:17:16.602Z,100514.97
2023-04-22T12:19:50.246Z,100514.91
2023-04-22T12:22:27.434Z,100505.13
2023-04-22T12:24:58.905Z,100511.41
2023-04-22T12:27:28.871Z,100515.03
2023-04-22T12:30:00.210Z,100515.09
2023-04-22T12:32:32.686Z,100510.63
2023-04-22T12:35:07.045Z,100508.81
2023-04-22T12:37:36.858Z,100512.38
2023-04-22T12:40:08.140Z,100512.38
2023-04-22T12:42:37.970Z,100511.50
2023-04-22T12:45:09.282Z,100513.31
2023-04-22T12:47:41.852Z,100506.28
2023-04-22T12:50:12.250Z,100495.56
2023-04-22T12:52:42.155Z,100500.94
2023-04-22T12:55:12.256Z,100493.78
2023-04-22T13:22:10.349Z,100459.91
2023-04-22T13:24:40.121Z,100456.63
2023-04-22T13:27:10.094Z,100447.88
2023-04-22T13:29:43.960Z,100439.94
2023-04-22T13:32:27.242Z,100431.22
2023-04-22T14:15:57.060Z,100418.81
2023-04-22T14:18:27.468Z,100420.59
2023-04-22T14:20:58.907Z,100439.22
2023-04-22T14:23:28.701Z,100439.22
2023-04-22T14:26:01.167Z,100455.19
2023-04-22T14:28:34.950Z,100444.53
2023-04-22T14:31:10.397Z,100445.41
2023-04-22T14:33:41.781Z,100443.69
2023-04-22T14:38:43.524Z,100467.59
2023-04-22T14:41:19.196Z,100456.94
2023-04-22T14:43:49.023Z,100456.94
2023-04-22T14:46:21.479Z,100450.66
2023-04-22T14:48:51.317Z,100448.00
2023-04-22T14:51:25.043Z,100442.69
2023-04-22T14:53:54.926Z,100447.97
2023-04-22T14:56:25.510Z,100444.44
2023-04-22T14:58:55.328Z,100443.56
2023-04-22T15:01:33.045Z,100441.88
2023-04-22T15:04:03.140Z,100446.31
2023-04-22T15:06:33.066Z,100449.84
2023-04-22T15:09:02.867Z,100441.88
2023-04-22T15:11:32.658Z,100436.59
2023-04-22T15:14:02.518Z,100447.22
2023-04-22T15:16:35.060Z,100450.75
2023-04-22T15:19:05.024Z,100443.66
2023-04-22T15:21:34.974Z,100449.84
2023-04-22T15:24:09.382Z,100454.25
2023-04-22T15:26:40.807Z,100470.13
2023-04-22T15:29:10.861Z,100466.56
2023-04-22T15:31:43.633Z,100471.81
2023-04-22T15:34:13.548Z,100469.97
2023-04-22T15:36:43.641Z,100453.97
2023-04-22T15:39:14.284Z,100440.66
2023-04-22T15:41:44.739Z,100459.13
2023-04-22T15:44:16.388Z,100475.03
2023-04-22T15:46:49.483Z,100486.41
2023-04-22T15:49:19.362Z,100476.63
2023-04-22T15:51:49.244Z,100477.44
2023-04-22T15:54:19.096Z,100497.69
2023-04-22T15:56:48.983Z,100488.81
2023-04-22T15:59:18.896Z,100488.75
2023-04-22T16:01:52.245Z,100478.97
2023-04-22T16:04:23.168Z,100473.66
2023-04-22T16:06:53.634Z,100476.25
2023-04-22T16:09:23.472Z,100478.84
2023-04-22T16:11:53.848Z,100484.13
2023-04-22T16:14:23.633Z,100482.31
2023-04-22T16:41:51.362Z,100471.31
2023-04-22T16:44:33.524Z,100487.22
2023-04-22T16:47:09.601Z,100479.16
2023-04-22T16:49:42.565Z,100491.38
2023-04-22T16:52:13.632Z,100494.88
2023-04-22T16:54:46.312Z,100490.47
2023-04-22T16:57:18.781Z,100488.75
2023-04-22T16:59:48.572Z,100489.72
2023-04-22T17:02:19.678Z,100514.41
2023-04-22T17:04:51.728Z,100516.13
2023-04-22T17:07:21.542Z,100538.97
2023-04-22T17:09:51.807Z,100526.59
2023-04-22T17:18:09.027Z,100531.53
2023-04-22T17:20:39.064Z,100541.22
2023-04-22T17:23:20.165Z,100540.31
2023-04-22T17:25:49.958Z,100536.66
2023-04-22T17:28:22.243Z,100547.09
2023-04-22T17:30:55.174Z,100546.81
2023-04-22T17:33:30.411Z,100543.09
2023-04-22T17:38:47.844Z,100541.06
2023-04-22T17:46:52.180Z,100540.72
2023-04-22T17:49:29.986Z,100547.50
2023-04-22T17:51:59.829Z,100548.25
2023-04-22T17:54:29.722Z,100548.19
2023-04-22T17:56:59.845Z,100549.97
2023-04-22T17:59:29.705Z,100549.91
2023-04-22T18:02:00.318Z,100557.75
2023-04-22T18:04:34.526Z,100557.72
2023-04-22T18:07:04.432Z,100561.31
2023-04-22T18:09:34.263Z,100544.53
2023-04-22T18:12:04.145Z,100545.53
2023-04-22T18:14:34.272Z,100547.38
2023-04-22T18:17:04.504Z,100544.72
2023-04-22T18:19:39.626Z,100539.41
2023-04-22T18:22:09.611Z,100549.09
2023-04-22T18:24:39.739Z,100553.53
2023-04-22T18:27:10.203Z,100556.03
2023-04-22T18:29:40.280Z,100568.31
2023-04-22T18:32:10.688Z,100568.31
2023-04-22T18:34:43.433Z,100569.22
2023-04-22T18:37:13.440Z,100569.22
2023-04-22T18:39:43.280Z,100576.25
2023-04-22T18:42:13.269Z,100579.69
2023-04-22T18:44:43.365Z,100584.06
2023-04-22T18:47:13.471Z,100583.97
2023-04-22T18:49:48.229Z,100577.78
2023-04-22T18:52:18.574Z,100588.28
2023-04-22T18:54:48.638Z,100589.13
2023-04-22T18:57:18.549Z,100598.84
2023-04-22T18:59:48.717Z,100598.84
2023-04-22T19:02:19.222Z,100614.72
2023-04-22T19:04:51.743Z,100617.38
2023-04-22T19:07:21.550Z,100620.94
2023-04-22T19:09:51.471Z,100619.22
2023-04-22T19:12:21.363Z,100619.19
2023-04-22T19:14:52.740Z,100620.06
2023-04-22T19:17:22.661Z,100624.50
2023-04-22T19:19:55.335Z,100618.31
2023-04-22T19:22:25.334Z,100626.16
2023-04-22T19:24:55.240Z,100612.81
2023-04-22T19:27:25.046Z,100623.38
2023-04-22T19:29:55.156Z,100619.00
2023-04-22T19:32:25.089Z,100619.13
2023-04-22T19:34:57.604Z,100618.31
2023-04-22T19:37:27.441Z,100628.84
2023-04-22T19:39:57.788Z,100628.88
2023-04-22T19:42:27.659Z,100636.88
2023-04-22T19:45:00.569Z,100636.88
2023-04-22T19:47:31.183Z,100629.84
2023-04-22T19:50:04.310Z,100634.25
2023-04-22T19:52:35.870Z,100630.78
2023-04-22T19:55:11.688Z,100637.91
2023-04-22T19:57:43.479Z,100626.63
2023-04-22T20:00:15.126Z,100629.34
2023-04-22T20:02:45.443Z,100639.97
2023-04-22T20:05:19.492Z,100630.19
2023-04-22T20:07:50.114Z,100635.47
2023-04-22T20:10:22.903Z,100631.16
2023-04-22T20:12:53.272Z,100625.06
2023-04-22T20:15:23.499Z,100629.53
2023-04-22T20:17:54.275Z,100622.66
2023-04-22T20:20:27.737Z,100628.88
2023-04-22T20:23:00.456Z,100628.03
2023-04-22T20:25:31.911Z,100627.16
2023-04-22T20:28:01.942Z,100621.88
2023-04-22T20:30:32.177Z,100626.25
2023-04-22T20:33:02.280Z,100635.84
2023-04-22T20:35:36.838Z,100631.41
2023-04-22T20:38:07.062Z,100646.31
2023-04-22T20:40:37.272Z,100650.53
2023-04-22T20:43:07.256Z,100638.22
2023-04-22T20:45:40.391Z,100635.56
2023-04-22T20:48:10.276Z,100642.63
2023-04-22T20:50:42.713Z,100637.34
2023-04-22T20:53:12.771Z,100642.63
2023-04-22T20:55:42.623Z,100639.94
2023-04-22T20:58:12.458Z,100646.09
2023-04-22T21:00:42.313Z,100655.78
2023-04-22T21:03:12.859Z,100655.81
2023-04-22T21:05:46.868Z,100654.94
2023-04-22T21:08:24.523Z,100656.69
2023-04-22T21:10:56.473Z,100650.53
2023-04-22T21:13:27.611Z,100647.84
2023-04-22T21:16:01.456Z,100653.03
2023-04-22T21:18:32.554Z,100647.69
2023-04-22T21:21:06.316Z,100656.34
2023-04-22T21:23:36.746Z,100650.91
2023-04-22T21:26:07.884Z,100648.09
2023-04-22T21:28:39.313Z,100644.47
2023-04-22T21:31:10.179Z,100654.09
2023-04-22T21:33:40.093Z,100658.50
2023-04-22T21:52:20.968Z,100667.78
2023-04-22T21:54:50.860Z,100670.31
2023-04-22T21:57:20.680Z,100672.00
2023-04-22T21:59:50.632Z,100669.31
2023-04-22T22:02:21.134Z,100668.38
2023-04-22T22:04:53.520Z,100669.19
2023-04-22T22:07:27.112Z,100663.75
2023-04-22T22:09:57.285Z,100665.50
2023-04-22T22:12:27.102Z,100664.56
2023-04-22T22:14:57.005Z,100669.84
2023-04-22T22:17:28.061Z,100675.00
2023-04-22T22:19:59.060Z,100674.94
2023-04-22T22:22:32.406Z,100687.25
2023-04-22T22:25:04.012Z,100684.53
2023-04-22T22:27:33.926Z,100688.88
2023-04-22T22:30:03.765Z,100689.69
2023-04-22T22:32:33.962Z,100691.44
2023-04-22T22:35:04.193Z,100689.63
2023-04-22T22:37:37.554Z,100694.84
2023-04-22T22:40:09.029Z,100701.81
2023-04-22T22:42:39.113Z,100703.50
2023-04-22T22:45:10.768Z,100696.34
2023-04-22T22:47:42.349Z,100699.75
2023-04-22T22:50:14.955Z,100706.69
2023-04-22T22:52:47.596Z,100703.94
2023-04-22T22:55:17.514Z,100697.66
2023-04-22T22:57:47.357Z,100698.47
2023-04-22T23:00:17.940Z,100707.97
2023-04-22T23:02:48.142Z,100699.03
2023-04-22T23:05:18.094Z,100699.94
2023-04-22T23:07:52.867Z,100707.78
2023-04-22T23:10:22.874Z,100691.81
2023-04-22T23:12:52.677Z,100695.31
2023-04-22T23:15:22.743Z,100682.97
2023-04-22T23:17:53.325Z,100693.44
2023-04-22T23:20:25.714Z,100687.22
2023-04-22T23:22:59.314Z,100689.78
2023-04-22T23:25:30.297Z,100688.03
2023-04-22T23:28:06.440Z,100687.91
2023-04-22T23:30:39.772Z,100694.00
2023-04-22T23:33:17.134Z,100687.75
2023-04-22T23:35:54.433Z,100695.59
